Pineville, MO (64856)

3:14 PM CDT on June 23, 2017 (GMT -0500)
Brush Creek | | Change Station

Elev 1056 ft 36.51 °N, 94.34 °W | Updated 13 seconds ago

Mostly Cloudy
Mostly Cloudy
74.8 °F
Feels Like 75 °F
N
10.3
Wind Variable Wind from WSW
Gusts 12.3 mph

Today
High -- | Low -- °F
--% Chance of Precip.
Yesterday
High -- | Low -- °F
Precip. -- in
Pressure 29.90 in
Visibility 10.0 miles
Clouds Scattered Clouds 1000 ft
Mostly Cloudy 5000 ft
Overcast 10000 ft
Heat Index 75 °F
Dew Point 68 °F
Humidity 80%
Rainfall 0.11 in
Snow Depth Not available.
5:59 AM 8:39 PM
Waning Crescent, 0% visible
METAR KVBT 231955Z AUTO 02013G19KT 10SM SCT010 BKN050 OVC100 22/21 A2990 RMK AO1 LTG DSNT NE TSB19E41 P0015
Pressure 29.90 in
Visibility 10.0 miles
Clouds Scattered Clouds 1000 ft
Mostly Cloudy 5000 ft
Overcast 10000 ft
Heat Index 75 °F
Dew Point 68 °F
Humidity 80%
Rainfall 0.11 in
Snow Depth Not available.
5:59 AM 8:39 PM
Waning Crescent, 0% visible
METAR KVBT 231955Z AUTO 02013G19KT 10SM SCT010 BKN050 OVC100 22/21 A2990 RMK AO1 LTG DSNT NE TSB19E41 P0015

Get Severe Weather Alerts

Thanks for signing up!

Be on the lookout for a verification email in your inbox.

You'll start receiving the daily forecast at 6 AM.

×

10-Day Weather Forecast

Almanac

Astronomy

Jun. 23, 2017 Rise Set
Actual Time
Civil Twilight
Nautical Twilight
Astronomical Twilight
Moon
Length of Visible Light
Length of Day
Tomorrow will be .
, % of the Moon is Illuminated

Today's Extremes

State Highs State Lows

Community

WunderPhotos

Category 6

Welcome to Category 6. This is the collective home for Weather Underground's featured writeups by Dr. Jeff Masters (right), Bob Henson (left), Chris Burt, and other regular contributors.

Nearby

Air Quality

  Air Quality AQ Index Pollutant
Not available.

Snow Depth

Station Depth Elevation

Earthquake Activity

City Distance Mag. Time & Date
Minimum magnitude displayed is 2.5.

Coastal Water Temperatures

Place Temperature

Stations

Nearby Weather Stations

Station Location Temp. Windchill Dew Point Humidity Wind Precip. Elev Updated Type
                   

Watches & Warnings

There are currently no watches in effect.